createdAt,value
2018-03-11T00:00:16.442Z,99.99
2018-03-11T00:01:16.435Z,99.99
2018-03-11T00:02:16.394Z,99.99
2018-03-11T00:03:16.386Z,99.99
2018-03-11T00:04:16.386Z,99.99
2018-03-11T00:05:16.420Z,99.99
2018-03-11T00:06:16.383Z,99.99
2018-03-11T00:07:16.403Z,99.99
2018-03-11T00:08:16.379Z,99.99
2018-03-11T00:09:16.382Z,99.99
2018-03-11T00:10:16.419Z,99.99
2018-03-11T00:11:16.392Z,99.99
2018-03-11T00:12:16.381Z,99.99
2018-03-11T00:13:16.380Z,99.99
2018-03-11T00:14:16.383Z,99.99
2018-03-11T00:15:16.416Z,99.99
2018-03-11T00:16:16.376Z,99.99
2018-03-11T00:17:16.374Z,99.99
2018-03-11T00:18:16.376Z,99.99
2018-03-11T00:19:16.371Z,99.99
2018-03-11T00:20:16.420Z,99.99
2018-03-11T00:21:16.384Z,99.99
2018-03-11T00:22:16.372Z,99.99
2018-03-11T00:23:16.371Z,99.99
2018-03-11T00:24:16.370Z,99.99
2018-03-11T00:25:16.412Z,99.99
2018-03-11T00:26:16.368Z,99.99
2018-03-11T00:27:16.370Z,99.99
2018-03-11T00:28:16.367Z,99.99
2018-03-11T00:29:16.395Z,99.99
2018-03-11T00:30:16.410Z,99.99
2018-03-11T00:31:16.415Z,99.99
2018-03-11T00:32:16.462Z,99.99
2018-03-11T00:33:16.371Z,99.99
2018-03-11T00:34:16.364Z,99.99
2018-03-11T00:35:16.368Z,99.99
2018-03-11T00:36:16.402Z,99.99
2018-03-11T00:37:16.366Z,99.99
2018-03-11T00:38:16.362Z,99.99
2018-03-11T00:39:16.361Z,99.99
2018-03-11T00:40:16.366Z,99.99
2018-03-11T00:41:16.407Z,99.99
2018-03-11T00:42:16.362Z,99.99
2018-03-11T00:43:16.372Z,99.99
2018-03-11T00:44:16.358Z,99.99
2018-03-11T00:45:16.419Z,99.99
2018-03-11T00:46:16.369Z,99.99
2018-03-11T00:47:16.400Z,99.99
2018-03-11T00:48:16.369Z,99.99
2018-03-11T00:49:16.358Z,99.99
2018-03-11T00:50:16.356Z,99.99
2018-03-11T00:51:16.400Z,99.99
2018-03-11T00:52:16.375Z,99.99
2018-03-11T00:53:16.354Z,99.99
2018-03-11T00:54:16.355Z,99.99
2018-03-11T00:55:16.354Z,99.99
2018-03-11T00:56:16.394Z,99.99
2018-03-11T00:57:16.355Z,99.99
2018-03-11T00:58:16.354Z,99.99
2018-03-11T00:59:16.351Z,99.99
2018-03-11T01:00:16.946Z,99.99
2018-03-11T01:01:16.387Z,99.99
2018-03-11T01:02:16.409Z,99.99
2018-03-11T01:03:16.348Z,99.99
2018-03-11T01:04:16.350Z,99.99
2018-03-11T01:05:16.350Z,99.99
2018-03-11T01:06:16.386Z,99.99
2018-03-11T01:07:16.348Z,99.99
2018-03-11T01:08:16.347Z,99.99
2018-03-11T01:09:16.348Z,99.99
2018-03-11T01:10:16.349Z,99.99
2018-03-11T01:11:16.386Z,99.99
2018-03-11T01:12:17.089Z,99.99
2018-03-11T01:13:16.340Z,99.99
2018-03-11T01:14:16.342Z,99.99
2018-03-11T01:15:16.342Z,99.99
2018-03-11T01:16:16.396Z,99.99
2018-03-11T01:17:16.341Z,99.99
2018-03-11T01:18:16.341Z,99.99
2018-03-11T01:19:16.364Z,99.99
2018-03-11T01:20:16.346Z,99.99
2018-03-11T01:21:16.390Z,99.99
2018-03-11T01:22:16.338Z,99.99
2018-03-11T01:23:16.338Z,99.99
2018-03-11T01:24:16.338Z,99.99
2018-03-11T01:25:16.337Z,99.99
2018-03-11T01:26:16.387Z,99.99
2018-03-11T01:27:16.338Z,99.99
2018-03-11T01:28:16.810Z,99.99
2018-03-11T01:29:16.336Z,99.99
2018-03-11T01:30:16.334Z,99.99
2018-03-11T01:31:16.385Z,99.99
2018-03-11T01:32:16.335Z,99.99
2018-03-11T01:33:16.357Z,99.99
2018-03-11T01:34:16.336Z,99.99
2018-03-11T01:35:16.333Z,99.99
2018-03-11T01:36:16.377Z,99.99
2018-03-11T01:37:16.332Z,99.99
2018-03-11T01:38:17.319Z,99.99
2018-03-11T01:39:16.329Z,99.99
2018-03-11T01:40:16.354Z,99.99
2018-03-11T01:41:16.372Z,99.99
2018-03-11T01:42:16.330Z,99.99
2018-03-11T01:43:16.355Z,99.99
2018-03-11T01:44:16.330Z,99.99
2018-03-11T01:45:16.354Z,99.99
2018-03-11T01:46:16.367Z,99.99
2018-03-11T01:47:16.343Z,99.99
2018-03-11T01:48:16.327Z,99.99
2018-03-11T01:49:16.328Z,99.99
2018-03-11T01:50:16.326Z,99.99
2018-03-11T01:51:16.368Z,99.99
2018-03-11T01:52:16.327Z,99.99
2018-03-11T01:53:16.324Z,99.99
2018-03-11T01:54:16.329Z,99.99
2018-03-11T01:55:16.324Z,99.99
2018-03-11T01:56:16.367Z,99.99
2018-03-11T01:57:16.341Z,99.99
2018-03-11T01:58:16.329Z,99.99
2018-03-11T01:59:16.323Z,99.99
2018-03-11T02:00:16.323Z,99.99
2018-03-11T02:01:17.387Z,99.99
2018-03-11T02:02:16.321Z,99.99
2018-03-11T02:03:16.322Z,99.99
2018-03-11T02:04:16.351Z,99.99
2018-03-11T02:05:16.330Z,99.99
2018-03-11T02:06:16.360Z,99.99
2018-03-11T02:07:16.321Z,99.99
2018-03-11T02:08:16.319Z,99.99
2018-03-11T02:09:16.319Z,99.99
2018-03-11T02:10:16.319Z,99.99
2018-03-11T02:11:16.374Z,99.99
2018-03-11T02:12:16.319Z,99.99
2018-03-11T02:13:16.318Z,99.99
2018-03-11T02:14:16.316Z,99.99
2018-03-11T02:15:16.317Z,99.99
2018-03-11T02:16:16.358Z,99.99
2018-03-11T02:17:16.318Z,99.99
2018-03-11T02:18:16.314Z,99.99
2018-03-11T02:19:16.319Z,99.99
2018-03-11T02:20:16.323Z,99.99
2018-03-11T02:21:16.361Z,99.99
2018-03-11T02:22:16.351Z,99.99
2018-03-11T02:23:16.317Z,99.99
2018-03-11T02:24:16.314Z,99.99
2018-03-11T02:25:16.312Z,99.99
2018-03-11T02:26:16.313Z,99.99
2018-03-11T02:27:16.380Z,99.99
2018-03-11T02:28:16.312Z,99.99
2018-03-11T02:29:16.310Z,99.99
2018-03-11T02:30:16.723Z,99.99
2018-03-11T02:31:16.351Z,99.99
2018-03-11T02:32:16.311Z,99.99
2018-03-11T02:33:16.309Z,99.99
2018-03-11T02:34:16.309Z,99.99
2018-03-11T02:35:16.315Z,99.99
2018-03-11T02:36:16.345Z,99.99
2018-03-11T02:37:16.424Z,99.99
2018-03-11T02:38:16.304Z,99.99
2018-03-11T02:39:16.307Z,99.99
2018-03-11T02:40:16.304Z,99.99
2018-03-11T02:41:16.361Z,99.99
2018-03-11T02:42:16.303Z,99.99
2018-03-11T02:43:16.303Z,99.99
2018-03-11T02:44:16.305Z,99.99
2018-03-11T02:45:16.302Z,99.99
2018-03-11T02:46:16.344Z,99.99
2018-03-11T02:47:16.303Z,99.99
2018-03-11T02:48:16.301Z,99.99
2018-03-11T02:49:16.302Z,99.99
2018-03-11T02:50:16.299Z,99.99
2018-03-11T02:51:16.360Z,99.99
2018-03-11T02:52:16.302Z,99.99
2018-03-11T02:53:16.299Z,99.99
2018-03-11T02:54:16.305Z,99.99
2018-03-11T02:55:16.295Z,99.99
2018-03-11T02:56:16.339Z,99.99
2018-03-11T02:57:17.129Z,99.99
2018-03-11T02:58:16.295Z,99.99
2018-03-11T02:59:16.295Z,99.99
2018-03-11T03:00:16.291Z,99.99
2018-03-11T03:01:16.340Z,99.99
2018-03-11T03:02:16.543Z,99.99
2018-03-11T03:03:16.291Z,99.99
2018-03-11T03:04:16.286Z,99.99
2018-03-11T03:05:16.284Z,99.99
2018-03-11T03:06:16.288Z,99.99
2018-03-11T03:07:16.324Z,99.99
2018-03-11T03:08:16.292Z,99.99
2018-03-11T03:09:16.280Z,99.99
2018-03-11T03:10:16.277Z,99.99
2018-03-11T03:11:16.278Z,99.99
2018-03-11T03:12:16.315Z,99.99
2018-03-11T03:13:16.980Z,99.99
2018-03-11T03:14:16.273Z,99.99
2018-03-11T03:15:16.282Z,99.99
2018-03-11T03:16:16.278Z,99.99
2018-03-11T03:17:16.572Z,99.99
2018-03-11T03:18:16.272Z,99.99
2018-03-11T03:19:16.269Z,99.99
2018-03-11T03:20:16.270Z,99.99
2018-03-11T03:21:16.269Z,99.99
2018-03-11T03:22:16.321Z,99.99
2018-03-11T03:23:16.269Z,99.99
2018-03-11T03:24:16.266Z,99.99
2018-03-11T03:25:16.265Z,99.99
2018-03-11T03:26:16.270Z,99.99
2018-03-11T03:27:16.308Z,99.99
2018-03-11T03:28:16.264Z,99.99
2018-03-11T03:29:16.261Z,99.99
2018-03-11T03:30:16.263Z,99.99
2018-03-11T03:31:16.847Z,99.99
2018-03-11T03:32:16.325Z,99.99
2018-03-11T03:33:16.261Z,99.99
2018-03-11T03:34:16.266Z,99.99
2018-03-11T03:35:16.257Z,99.99
2018-03-11T03:36:16.258Z,99.99
2018-03-11T03:37:16.293Z,99.99
2018-03-11T03:38:16.298Z,99.99
2018-03-11T03:39:16.280Z,99.99
2018-03-11T03:40:16.259Z,99.99
2018-03-11T03:41:16.252Z,99.99
2018-03-11T03:42:16.251Z,99.99
2018-03-11T03:43:16.294Z,99.99
2018-03-11T03:44:16.251Z,99.99
2018-03-11T03:45:16.325Z,99.99
2018-03-11T03:46:16.272Z,99.99
2018-03-11T03:47:16.252Z,99.99
2018-03-11T03:48:16.293Z,99.99
2018-03-11T03:49:16.265Z,99.99
2018-03-11T03:50:16.249Z,99.99
2018-03-11T03:51:16.248Z,99.99
2018-03-11T03:52:16.248Z,99.99
2018-03-11T03:53:16.292Z,99.99
2018-03-11T03:54:16.243Z,99.99
2018-03-11T03:55:16.245Z,99.99
2018-03-11T03:56:16.248Z,99.99
2018-03-11T03:57:16.284Z,99.99
2018-03-11T03:58:16.243Z,99.99
2018-03-11T03:59:16.242Z,99.99
2018-03-11T04:00:16.242Z,99.99
2018-03-11T04:01:16.241Z,99.99
2018-03-11T04:02:16.281Z,99.99
2018-03-11T04:03:16.251Z,99.99
2018-03-11T04:04:16.239Z,99.99
2018-03-11T04:05:16.235Z,99.99
2018-03-11T04:06:16.238Z,99.99
2018-03-11T04:07:16.261Z,99.99
2018-03-11T04:08:16.271Z,99.99
2018-03-11T04:09:16.222Z,99.99
2018-03-11T04:10:16.239Z,99.99
2018-03-11T04:11:16.219Z,99.99
2018-03-11T04:12:16.276Z,99.99
2018-03-11T04:13:16.217Z,99.99
2018-03-11T04:14:16.216Z,99.99
2018-03-11T04:15:16.226Z,99.99
2018-03-11T04:16:16.247Z,99.99
2018-03-11T04:17:16.235Z,99.99
2018-03-11T04:18:16.254Z,99.99
2018-03-11T04:19:16.223Z,99.99
2018-03-11T04:20:16.234Z,99.99
2018-03-11T04:21:16.220Z,99.99
2018-03-11T04:22:16.246Z,99.99
2018-03-11T04:23:16.818Z,99.99
2018-03-11T04:24:16.219Z,99.99
2018-03-11T04:25:16.218Z,99.99
2018-03-11T04:26:16.218Z,99.99
2018-03-11T04:27:16.265Z,99.99
2018-03-11T04:28:16.215Z,99.99
2018-03-11T04:29:16.212Z,99.99
2018-03-11T04:30:16.201Z,99.99
2018-03-11T04:31:16.201Z,99.99
2018-03-11T04:32:16.249Z,99.99
2018-03-11T04:33:16.207Z,99.99
2018-03-11T04:34:16.633Z,99.99
2018-03-11T04:35:16.208Z,99.99
2018-03-11T04:36:16.197Z,99.99
2018-03-11T04:37:16.246Z,99.99
2018-03-11T04:38:16.217Z,99.99
2018-03-11T04:39:16.195Z,99.99
2018-03-11T04:40:16.202Z,99.99
2018-03-11T04:41:16.205Z,99.99
2018-03-11T04:42:16.237Z,99.99
2018-03-11T04:43:16.199Z,99.99
2018-03-11T04:44:16.214Z,99.99
2018-03-11T04:45:16.191Z,99.99
2018-03-11T04:46:16.184Z,99.99
2018-03-11T04:47:16.232Z,99.99
2018-03-11T04:48:16.186Z,99.99
2018-03-11T04:49:16.190Z,99.99
2018-03-11T04:50:16.190Z,99.99
2018-03-11T04:51:16.215Z,99.99
2018-03-11T04:52:16.226Z,99.99
2018-03-11T04:53:16.186Z,99.99
2018-03-11T04:54:16.175Z,99.99
2018-03-11T04:55:16.177Z,99.99
2018-03-11T04:56:16.176Z,99.99
2018-03-11T04:57:16.892Z,99.99
2018-03-11T04:58:16.246Z,99.99
2018-03-11T04:59:16.180Z,99.99
2018-03-11T05:00:16.181Z,99.99
2018-03-11T05:01:16.180Z,99.99
2018-03-11T05:02:16.210Z,99.99
2018-03-11T05:03:16.402Z,99.99
2018-03-11T05:04:16.166Z,99.99
2018-03-11T05:05:16.173Z,99.99
2018-03-11T05:06:16.160Z,99.99
2018-03-11T05:07:16.210Z,99.99
2018-03-11T05:08:16.189Z,99.99
2018-03-11T05:09:16.170Z,99.99
2018-03-11T05:10:16.167Z,99.99
2018-03-11T05:11:16.155Z,99.99
2018-03-11T05:12:16.221Z,99.99
2018-03-11T05:13:16.152Z,99.99
2018-03-11T05:14:16.150Z,99.99
2018-03-11T05:15:16.172Z,99.99
2018-03-11T05:16:16.159Z,99.99
2018-03-11T05:17:16.192Z,99.99
2018-03-11T05:18:16.184Z,99.99
2018-03-11T05:19:16.146Z,99.99
2018-03-11T05:20:16.153Z,99.99
2018-03-11T05:21:16.142Z,99.99
2018-03-11T05:22:16.174Z,99.99
2018-03-11T05:23:16.179Z,99.99
2018-03-11T05:24:16.196Z,99.99
2018-03-11T05:25:16.146Z,99.99
2018-03-11T05:26:16.138Z,99.99
2018-03-11T05:27:16.145Z,99.99
2018-03-11T05:28:16.173Z,99.99
2018-03-11T05:29:16.996Z,99.99
2018-03-11T05:30:16.133Z,99.99
2018-03-11T05:31:16.132Z,99.99
2018-03-11T05:32:16.161Z,99.99
2018-03-11T05:33:16.175Z,99.99
2018-03-11T05:34:16.135Z,99.99
2018-03-11T05:35:16.130Z,99.99
2018-03-11T05:36:16.124Z,99.99
2018-03-11T05:37:16.123Z,99.99
2018-03-11T05:38:16.169Z,99.99
2018-03-11T05:39:16.139Z,99.99
2018-03-11T05:40:16.121Z,99.99
2018-03-11T05:41:16.132Z,99.99
2018-03-11T05:42:16.166Z,99.99
2018-03-11T05:43:16.155Z,99.99
2018-03-11T05:44:16.125Z,99.99
2018-03-11T05:45:16.117Z,99.99
2018-03-11T05:46:16.138Z,99.99
2018-03-11T05:47:16.113Z,99.99
2018-03-11T05:48:16.147Z,99.99
2018-03-11T05:49:16.117Z,99.99
2018-03-11T05:50:16.110Z,99.99
2018-03-11T05:51:16.107Z,99.99
2018-03-11T05:52:16.848Z,99.99
2018-03-11T05:53:16.142Z,99.99
2018-03-11T05:54:16.106Z,99.99
2018-03-11T05:55:16.108Z,99.99
2018-03-11T05:56:16.116Z,99.99
2018-03-11T05:57:16.137Z,99.99
2018-03-11T05:58:16.106Z,99.99
2018-03-11T05:59:16.111Z,99.99
2018-03-11T06:00:16.106Z,99.99
2018-03-11T06:01:16.638Z,99.99
2018-03-11T06:02:16.133Z,99.99
2018-03-11T06:03:16.116Z,99.99
2018-03-11T06:04:16.098Z,99.99
2018-03-11T06:05:16.101Z,99.99
2018-03-11T06:06:16.099Z,99.99
2018-03-11T06:07:16.135Z,99.99
2018-03-11T06:08:16.098Z,99.99
2018-03-11T06:09:16.097Z,99.99
2018-03-11T06:10:16.095Z,99.99
2018-03-11T06:11:16.090Z,99.99
2018-03-11T06:12:16.121Z,99.99
2018-03-11T06:13:16.083Z,99.99
2018-03-11T06:14:16.080Z,99.99
2018-03-11T06:15:16.083Z,99.99
2018-03-11T06:16:16.079Z,99.99
2018-03-11T06:17:16.126Z,99.99
2018-03-11T06:18:16.087Z,99.99
2018-03-11T06:19:16.113Z,99.99
2018-03-11T06:20:16.088Z,99.99
2018-03-11T06:21:16.083Z,99.99
2018-03-11T06:22:16.086Z,98.93
2018-03-11T06:23:16.119Z,99.79
2018-03-11T06:24:16.079Z,99.99
2018-03-11T06:25:16.080Z,99.99
2018-03-11T06:26:16.080Z,99.99
2018-03-11T06:27:16.209Z,99.99
2018-03-11T06:28:16.112Z,99.99
2018-03-11T06:29:16.072Z,99.99
2018-03-11T06:30:16.119Z,99.99
2018-03-11T06:31:16.077Z,99.74
2018-03-11T06:32:16.076Z,98.94
2018-03-11T06:33:16.109Z,97.60
2018-03-11T06:34:16.137Z,96.27
2018-03-11T06:35:16.205Z,95.41
2018-03-11T06:36:16.081Z,94.65
2018-03-11T06:37:16.074Z,95.03
2018-03-11T06:38:16.113Z,95.03
2018-03-11T06:39:16.075Z,94.93
2018-03-11T06:40:16.084Z,95.03
2018-03-11T06:41:16.082Z,94.13
2018-03-11T06:42:16.080Z,93.27
2018-03-11T06:43:16.112Z,92.65
2018-03-11T06:44:16.074Z,92.08
2018-03-11T06:45:16.074Z,92.08
2018-03-11T06:46:16.075Z,91.69
2018-03-11T06:47:16.072Z,91.31
2018-03-11T06:48:16.149Z,89.79
2018-03-11T06:49:16.066Z,89.17
2018-03-11T06:50:16.077Z,89.74
2018-03-11T06:51:16.087Z,88.59
2018-03-11T06:52:16.086Z,87.87
2018-03-11T06:53:16.112Z,87.11
2018-03-11T06:54:16.085Z,86.82
2018-03-11T06:55:16.070Z,86.16
2018-03-11T06:56:16.089Z,85.82
2018-03-11T06:57:16.081Z,84.29
2018-03-11T06:58:16.207Z,83.81
2018-03-11T06:59:16.113Z,83.05
2018-03-11T07:00:16.091Z,83.62
2018-03-11T07:01:16.089Z,83.86
2018-03-11T07:02:16.090Z,82.90
2018-03-11T07:03:16.093Z,82.61
2018-03-11T07:04:16.172Z,81.56
2018-03-11T07:05:16.091Z,80.90
2018-03-11T07:06:16.123Z,80.27
2018-03-11T07:07:16.102Z,80.46
2018-03-11T07:08:16.197Z,80.55
2018-03-11T07:09:16.166Z,79.60
2018-03-11T07:10:16.098Z,78.87
2018-03-11T07:11:16.102Z,79.35
2018-03-11T07:12:17.130Z,77.76
2018-03-11T07:13:16.198Z,76.71
2018-03-11T07:14:16.288Z,75.95
2018-03-11T07:15:16.120Z,75.31
2018-03-11T07:16:16.144Z,74.70
2018-03-11T07:17:16.126Z,75.74
2018-03-11T07:18:16.122Z,80.68
2018-03-11T07:19:16.176Z,84.59
2018-03-11T07:20:16.128Z,84.69
2018-03-11T07:21:16.132Z,83.77
2018-03-11T07:22:16.134Z,84.06
2018-03-11T07:23:16.139Z,83.96
2018-03-11T07:24:16.189Z,83.72
2018-03-11T07:25:16.146Z,82.76
2018-03-11T07:26:16.150Z,82.00
2018-03-11T07:27:16.168Z,81.56
2018-03-11T07:28:16.169Z,80.80
2018-03-11T07:29:16.204Z,80.32
2018-03-11T07:30:16.259Z,80.22
2018-03-11T07:31:16.179Z,80.13
2018-03-11T07:32:16.186Z,79.60
2018-03-11T07:33:16.210Z,79.31
2018-03-11T07:34:16.193Z,78.41
2018-03-11T07:35:16.239Z,79.17
2018-03-11T07:36:16.195Z,79.69
2018-03-11T07:37:16.220Z,77.92
2018-03-11T07:38:16.211Z,76.42
2018-03-11T07:39:16.221Z,74.93
2018-03-11T07:40:16.270Z,74.11
2018-03-11T07:41:16.223Z,72.13
2018-03-11T07:42:16.224Z,70.89
2018-03-11T07:43:16.231Z,69.83
2018-03-11T07:44:16.264Z,70.25
2018-03-11T07:45:16.291Z,68.78
2018-03-11T07:46:16.250Z,69.45
2018-03-11T07:47:16.254Z,69.32
2018-03-11T07:48:16.269Z,70.41
2018-03-11T07:49:16.310Z,70.03
2018-03-11T07:50:16.322Z,68.78
2018-03-11T07:51:16.315Z,69.42
2018-03-11T07:52:16.292Z,70.70
2018-03-11T07:53:16.291Z,69.70
2018-03-11T07:54:16.305Z,71.20
2018-03-11T07:55:16.344Z,73.04
2018-03-11T07:56:16.362Z,74.95
2018-03-11T07:57:16.325Z,75.43
2018-03-11T07:58:16.344Z,74.22
2018-03-11T07:59:16.348Z,74.26
2018-03-11T08:00:16.397Z,72.52
2018-03-11T08:01:16.354Z,71.21
2018-03-11T08:02:16.391Z,69.62
2018-03-11T08:03:16.381Z,68.79
2018-03-11T08:04:16.389Z,67.00
2018-03-11T08:05:16.438Z,68.05
2018-03-11T08:06:16.398Z,67.25
2018-03-11T08:07:16.416Z,68.52
2018-03-11T08:08:16.441Z,70.05
2018-03-11T08:09:16.435Z,73.80
2018-03-11T08:10:16.520Z,75.52
2018-03-11T08:11:16.452Z,76.10
2018-03-11T08:12:16.462Z,77.01
2018-03-11T08:13:16.482Z,77.87
2018-03-11T08:14:16.474Z,77.87
2018-03-11T08:15:16.519Z,79.65
2018-03-11T08:16:16.549Z,79.69
2018-03-11T08:17:16.510Z,78.93
2018-03-11T08:18:16.525Z,79.65
2018-03-11T08:19:16.532Z,80.80
2018-03-11T08:20:16.622Z,80.61
2018-03-11T08:21:16.539Z,80.90
2018-03-11T08:22:16.548Z,81.09
2018-03-11T08:23:16.560Z,81.37
2018-03-11T08:24:16.606Z,82.09
2018-03-11T08:25:16.628Z,82.14
2018-03-11T08:26:16.645Z,81.51
2018-03-11T08:27:16.624Z,79.73
2018-03-11T08:28:16.609Z,77.76
2018-03-11T08:29:16.616Z,76.81
2018-03-11T08:30:16.673Z,77.33
2018-03-11T08:31:16.644Z,74.87
2018-03-11T08:32:16.657Z,72.99
2018-03-11T08:33:16.664Z,72.03
2018-03-11T08:34:16.678Z,72.48
2018-03-11T08:35:16.757Z,73.21
2018-03-11T08:36:16.717Z,75.85
2018-03-11T08:37:16.697Z,77.25
2018-03-11T08:38:16.719Z,77.63
2018-03-11T08:39:16.730Z,77.09
2018-03-11T08:40:16.772Z,75.37
2018-03-11T08:41:16.740Z,75.62
2018-03-11T08:42:16.747Z,77.87
2018-03-11T08:43:16.757Z,80.17
2018-03-11T08:44:16.782Z,78.83
2018-03-11T08:45:16.827Z,78.97
2018-03-11T08:46:16.792Z,76.23
2018-03-11T08:47:16.812Z,75.18
2018-03-11T08:48:16.826Z,75.27
2018-03-11T08:49:16.859Z,75.37
2018-03-11T08:50:16.873Z,74.61
2018-03-11T08:51:16.845Z,74.93
2018-03-11T08:52:16.868Z,73.88
2018-03-11T08:53:17.644Z,74.74
2018-03-11T08:54:16.890Z,73.88
2018-03-11T08:55:16.929Z,74.13
2018-03-11T08:56:16.916Z,75.14
2018-03-11T08:57:16.922Z,76.29
2018-03-11T08:58:16.928Z,77.97
2018-03-11T08:59:16.989Z,78.64
2018-03-11T09:00:16.981Z,78.68
2018-03-11T09:01:16.956Z,77.87
2018-03-11T09:02:16.966Z,78.83
2018-03-11T09:03:16.983Z,78.87
2018-03-11T09:04:17.036Z,77.15
2018-03-11T09:05:17.008Z,77.53
2018-03-11T09:06:17.048Z,76.71
2018-03-11T09:07:17.039Z,75.76
2018-03-11T09:08:17.040Z,75.02
2018-03-11T09:09:17.085Z,74.26
2018-03-11T09:10:17.056Z,73.76
2018-03-11T09:11:17.060Z,71.66
2018-03-11T09:12:17.070Z,70.64
2018-03-11T09:13:17.178Z,69.33
2018-03-11T09:14:17.153Z,69.58
2018-03-11T09:15:17.108Z,69.64
2018-03-11T09:16:17.167Z,70.89
2018-03-11T09:17:17.123Z,70.41
2018-03-11T09:18:17.141Z,71.33
2018-03-11T09:19:17.153Z,73.30
2018-03-11T09:20:17.201Z,73.88
2018-03-11T09:21:17.173Z,74.93
2018-03-11T09:22:17.186Z,74.65
2018-03-11T09:23:17.208Z,73.69
2018-03-11T09:24:17.266Z,74.74
2018-03-11T09:25:17.212Z,75.18
2018-03-11T09:26:17.221Z,75.85
2018-03-11T09:27:17.239Z,76.52
2018-03-11T09:28:17.248Z,77.48
2018-03-11T09:29:17.305Z,76.42
2018-03-11T09:30:18.164Z,76.14
2018-03-11T09:31:17.274Z,76.42
2018-03-11T09:32:17.279Z,77.19
2018-03-11T09:33:17.300Z,76.42
2018-03-11T09:34:17.348Z,77.15
2018-03-11T09:35:17.311Z,78.68
2018-03-11T09:36:17.345Z,78.87
2018-03-11T09:37:17.336Z,78.58
2018-03-11T09:38:17.336Z,78.87
2018-03-11T09:39:17.345Z,78.87
2018-03-11T09:40:17.443Z,78.24
2018-03-11T09:41:17.360Z,77.67
2018-03-11T09:42:17.382Z,76.71
2018-03-11T09:43:17.393Z,76.65
2018-03-11T09:44:17.435Z,75.26
2018-03-11T09:45:17.407Z,73.47
2018-03-11T09:46:17.409Z,73.28
2018-03-11T09:47:17.433Z,73.19
2018-03-11T09:48:17.427Z,72.32
2018-03-11T09:49:17.481Z,71.34
2018-03-11T09:50:17.657Z,70.01
2018-03-11T09:51:17.462Z,66.71
2018-03-11T09:52:17.474Z,64.34
2018-03-11T09:53:17.487Z,67.12
2018-03-11T09:54:17.545Z,69.30
2018-03-11T09:55:17.507Z,68.41
2018-03-11T09:56:17.509Z,65.75
2018-03-11T09:57:17.531Z,64.25
2018-03-11T09:58:17.566Z,65.62
2018-03-11T09:59:17.596Z,65.75
2018-03-11T10:00:17.560Z,65.52
2018-03-11T10:01:17.580Z,66.52
2018-03-11T10:02:17.592Z,66.74
2018-03-11T10:03:17.600Z,68.18
2018-03-11T10:04:17.665Z,68.85
2018-03-11T10:05:17.629Z,68.37
2018-03-11T10:06:17.640Z,66.86
2018-03-11T10:07:17.655Z,67.38
2018-03-11T10:08:17.666Z,66.42
2018-03-11T10:09:17.738Z,65.75
2018-03-11T10:10:17.700Z,67.63
2018-03-11T10:11:18.077Z,67.38
2018-03-11T10:12:17.720Z,65.81
2018-03-11T10:13:17.741Z,64.92
2018-03-11T10:14:17.819Z,65.59
2018-03-11T10:15:17.777Z,64.72
2018-03-11T10:16:17.795Z,66.30
2018-03-11T10:17:17.801Z,65.11
2018-03-11T10:18:17.803Z,66.03
2018-03-11T10:19:17.869Z,66.96
2018-03-11T10:20:17.856Z,66.77
2018-03-11T10:21:17.860Z,67.25
2018-03-11T10:22:17.860Z,67.73
2018-03-11T10:23:17.875Z,67.32
2018-03-11T10:24:17.938Z,67.99
2018-03-11T10:25:17.909Z,68.08
2018-03-11T10:26:17.925Z,68.37
2018-03-11T10:27:17.936Z,70.55
2018-03-11T10:28:17.950Z,67.90
2018-03-11T10:29:17.995Z,65.81
2018-03-11T10:30:17.974Z,65.81
2018-03-11T10:31:18.002Z,66.03
2018-03-11T10:32:18.000Z,66.58
2018-03-11T10:33:18.002Z,66.67
2018-03-11T10:34:18.069Z,66.64
2018-03-11T10:35:18.031Z,67.63
2018-03-11T10:36:18.051Z,66.00
2018-03-11T10:37:18.062Z,66.39
2018-03-11T10:38:18.076Z,66.33
2018-03-11T10:39:18.154Z,66.52
2018-03-11T10:40:18.095Z,66.36
2018-03-11T10:41:18.108Z,64.92
2018-03-11T10:42:18.129Z,65.17
2018-03-11T10:43:18.144Z,66.52
2018-03-11T10:44:18.197Z,67.03
2018-03-11T10:45:18.178Z,64.76
2018-03-11T10:46:18.242Z,64.15
2018-03-11T10:47:18.200Z,64.02
2018-03-11T10:48:18.210Z,64.69
2018-03-11T10:49:18.276Z,63.32
2018-03-11T10:50:18.314Z,63.89
2018-03-11T10:51:18.252Z,64.47
2018-03-11T10:52:18.275Z,64.34
2018-03-11T10:53:18.292Z,64.66
2018-03-11T10:54:18.343Z,64.12
2018-03-11T10:55:18.349Z,61.74
2018-03-11T10:56:18.657Z,62.19
2018-03-11T10:57:18.373Z,61.74
2018-03-11T10:58:18.358Z,58.72
2018-03-11T10:59:18.379Z,59.27
2018-03-11T11:00:18.429Z,59.52
2018-03-11T11:01:18.403Z,58.34
2018-03-11T11:02:18.482Z,57.31
2018-03-11T11:03:18.449Z,57.37
2018-03-11T11:04:18.493Z,58.79
2018-03-11T11:05:18.472Z,58.18
2018-03-11T11:06:18.498Z,60.17
2018-03-11T11:07:18.521Z,60.21
2018-03-11T11:08:18.544Z,60.55
2018-03-11T11:09:18.601Z,58.60
2018-03-11T11:10:18.558Z,57.37
2018-03-11T11:11:18.577Z,56.80
2018-03-11T11:12:18.617Z,57.02
2018-03-11T11:13:18.623Z,56.12
2018-03-11T11:14:18.668Z,57.35
2018-03-11T11:15:18.702Z,58.86
2018-03-11T11:16:18.693Z,57.86
2018-03-11T11:17:19.187Z,59.10
2018-03-11T11:18:18.712Z,54.05
2018-03-11T11:19:18.800Z,52.11
2018-03-11T11:20:18.809Z,52.06
2018-03-11T11:21:18.770Z,51.75
2018-03-11T11:22:18.780Z,53.17
2018-03-11T11:23:18.802Z,52.35
2018-03-11T11:24:18.890Z,51.53
2018-03-11T11:25:18.885Z,51.20
2018-03-11T11:26:18.896Z,48.08
2018-03-11T11:27:18.894Z,51.63
2018-03-11T11:28:18.909Z,49.90
2018-03-11T11:29:18.973Z,50.06
2018-03-11T11:30:18.954Z,50.57
2018-03-11T11:31:19.030Z,50.49
2018-03-11T11:32:18.993Z,53.11
2018-03-11T11:33:19.003Z,54.20
2018-03-11T11:34:19.060Z,55.01
2018-03-11T11:35:19.092Z,55.78
2018-03-11T11:36:19.075Z,56.23
2018-03-11T11:37:19.219Z,58.61
2018-03-11T11:38:19.102Z,58.73
2018-03-11T11:39:19.189Z,57.99
2018-03-11T11:40:19.177Z,56.84
2018-03-11T11:41:19.166Z,55.81
2018-03-11T11:42:19.183Z,55.62
2018-03-11T11:43:19.200Z,55.68
2018-03-11T11:44:19.254Z,56.29
2018-03-11T11:45:19.272Z,54.22
2018-03-11T11:46:19.252Z,52.73
2018-03-11T11:47:20.211Z,52.23
2018-03-11T11:48:19.285Z,52.42
2018-03-11T11:49:19.333Z,53.23
2018-03-11T11:50:19.361Z,53.86
2018-03-11T11:51:19.337Z,55.13
2018-03-11T11:52:19.354Z,54.56
2018-03-11T11:53:19.371Z,53.88
2018-03-11T11:54:19.440Z,54.14
2018-03-11T11:55:19.404Z,53.96
2018-03-11T11:56:19.413Z,54.17
2018-03-11T11:57:19.432Z,53.50
2018-03-11T11:58:19.456Z,53.33
2018-03-11T11:59:19.502Z,51.84
2018-03-11T12:00:19.490Z,51.10
2018-03-11T12:01:19.500Z,50.62
2018-03-11T12:02:19.515Z,51.79
2018-03-11T12:03:19.534Z,52.83
2018-03-11T12:04:19.596Z,53.66
2018-03-11T12:05:19.581Z,54.22
2018-03-11T12:06:19.588Z,54.69
2018-03-11T12:07:19.742Z,55.08
2018-03-11T12:08:19.609Z,54.31
2018-03-11T12:09:19.686Z,54.72
2018-03-11T12:10:19.649Z,53.50
2018-03-11T12:11:19.664Z,52.49
2018-03-11T12:12:19.679Z,51.98
2018-03-11T12:13:19.684Z,53.43
2018-03-11T12:14:19.747Z,52.08
2018-03-11T12:15:20.633Z,52.25
2018-03-11T12:16:19.747Z,53.57
2018-03-11T12:17:19.771Z,53.50
2018-03-11T12:18:19.764Z,52.10
2018-03-11T12:19:19.816Z,53.35
2018-03-11T12:20:19.805Z,53.25
2018-03-11T12:21:19.804Z,53.09
2018-03-11T12:22:19.822Z,51.89
2018-03-11T12:23:19.825Z,51.14
2018-03-11T12:24:19.896Z,50.85
2018-03-11T12:25:19.858Z,49.63
2018-03-11T12:26:19.866Z,49.37
2018-03-11T12:27:19.891Z,48.25
2018-03-11T12:28:19.905Z,49.41
2018-03-11T12:29:19.945Z,49.87
2018-03-11T12:30:19.920Z,49.58
2018-03-11T12:31:19.953Z,50.13
2018-03-11T12:32:20.028Z,50.71
2018-03-11T12:33:19.973Z,49.68
2018-03-11T12:34:20.066Z,49.10
2018-03-11T12:35:20.000Z,49.19
2018-03-11T12:36:20.017Z,49.48
2018-03-11T12:37:20.032Z,50.35
2018-03-11T12:38:20.039Z,50.32
2018-03-11T12:39:20.115Z,49.38
2018-03-11T12:40:20.726Z,49.58
2018-03-11T12:41:20.072Z,49.00
2018-03-11T12:42:20.124Z,49.46
2018-03-11T12:43:20.101Z,51.02
2018-03-11T12:44:20.160Z,49.51
2018-03-11T12:45:20.140Z,48.35
2018-03-11T12:46:20.160Z,47.58
2018-03-11T12:47:20.149Z,48.52
2018-03-11T12:48:20.162Z,49.68
2018-03-11T12:49:20.222Z,49.82
2018-03-11T12:50:20.247Z,50.61
2018-03-11T12:51:20.202Z,49.94
2018-03-11T12:52:20.221Z,49.68